sensor_id;sensor_type;location;lat;lon;timestamp;pressure;altitude;pressure_sealevel;temperature
67515;BMP280;60646;55.802;37.032;2022-11-20T00:01:21;99696.78;;;3.66
67515;BMP280;60646;55.802;37.032;2022-11-20T00:03:47;99701.00;;;3.64
67515;BMP280;60646;55.802;37.032;2022-11-20T00:06:16;99696.94;;;3.72
67515;BMP280;60646;55.802;37.032;2022-11-20T00:08:42;99698.34;;;3.64
67515;BMP280;60646;55.802;37.032;2022-11-20T00:11:10;99679.03;;;3.54
67515;BMP280;60646;55.802;37.032;2022-11-20T00:13:36;99712.50;;;3.70
67515;BMP280;60646;55.802;37.032;2022-11-20T00:16:04;99713.25;;;3.70
67515;BMP280;60646;55.802;37.032;2022-11-20T00:18:30;99695.41;;;3.62
67515;BMP280;60646;55.802;37.032;2022-11-20T00:21:14;99691.63;;;3.63
67515;BMP280;60646;55.802;37.032;2022-11-20T00:23:40;99685.38;;;3.57
67515;BMP280;60646;55.802;37.032;2022-11-20T00:26:09;99714.72;;;3.71
67515;BMP280;60646;55.802;37.032;2022-11-20T00:28:35;99698.34;;;3.64
67515;BMP280;60646;55.802;37.032;2022-11-20T00:31:09;99695.09;;;3.60
67515;BMP280;60646;55.802;37.032;2022-11-20T00:33:35;99697.94;;;3.65
67515;BMP280;60646;55.802;37.032;2022-11-20T00:36:13;99717.22;;;3.75
67515;BMP280;60646;55.802;37.032;2022-11-20T00:38:39;99688.03;;;3.57
67515;BMP280;60646;55.802;37.032;2022-11-20T00:41:08;99705.00;;;3.68
67515;BMP280;60646;55.802;37.032;2022-11-20T00:43:34;99709.28;;;3.75
67515;BMP280;60646;55.802;37.032;2022-11-20T00:46:03;99704.56;;;3.70
67515;BMP280;60646;55.802;37.032;2022-11-20T00:48:29;99700.44;;;3.69
67515;BMP280;60646;55.802;37.032;2022-11-20T00:50:55;99699.28;;;3.70
67515;BMP280;60646;55.802;37.032;2022-11-20T00:53:21;99696.03;;;3.66
67515;BMP280;60646;55.802;37.032;2022-11-20T00:55:59;99716.69;;;3.80
67515;BMP280;60646;55.802;37.032;2022-11-20T00:58:29;99720.47;;;3.79
67515;BMP280;60646;55.802;37.032;2022-11-20T01:01:11;99705.16;;;3.74
67515;BMP280;60646;55.802;37.032;2022-11-20T01:03:39;99713.72;;;3.78
67515;BMP280;60646;55.802;37.032;2022-11-20T01:06:29;99699.59;;;3.72
67515;BMP280;60646;55.802;37.032;2022-11-20T01:08:56;99703.88;;;3.79
67515;BMP280;60646;55.802;37.032;2022-11-20T01:11:24;99707.81;;;3.74
67515;BMP280;60646;55.802;37.032;2022-11-20T01:13:52;99716.69;;;3.80
67515;BMP280;60646;55.802;37.032;2022-11-20T01:16:29;99711.06;;;3.78
67515;BMP280;60646;55.802;37.032;2022-11-20T01:18:57;99706.34;;;3.73
67515;BMP280;60646;55.802;37.032;2022-11-20T01:21:28;99711.69;;;3.82
67515;BMP280;60646;55.802;37.032;2022-11-20T01:23:54;99716.25;;;3.82
67515;BMP280;60646;55.802;37.032;2022-11-20T01:26:23;99698.13;;;3.71
67515;BMP280;60646;55.802;37.032;2022-11-20T01:28:50;99712.88;;;3.81
67515;BMP280;60646;55.802;37.032;2022-11-20T01:31:21;99707.06;;;3.73
67515;BMP280;60646;55.802;37.032;2022-11-20T01:33:50;99704.16;;;3.71
67515;BMP280;60646;55.802;37.032;2022-11-20T01:36:17;99723.44;;;3.81
67515;BMP280;60646;55.802;37.032;2022-11-20T01:38:43;99704.25;;;3.68
67515;BMP280;60646;55.802;37.032;2022-11-20T01:41:11;99705.13;;;3.65
67515;BMP280;60646;55.802;37.032;2022-11-20T01:43:56;99713.50;;;3.72
67515;BMP280;60646;55.802;37.032;2022-11-20T01:46:22;99711.03;;;3.69
67515;BMP280;60646;55.802;37.032;2022-11-20T01:51:23;99716.31;;;3.69
67515;BMP280;60646;55.802;37.032;2022-11-20T01:53:50;99718.19;;;3.68
67515;BMP280;60646;55.802;37.032;2022-11-20T01:56:17;99718.66;;;3.67
67515;BMP280;60646;55.802;37.032;2022-11-20T01:58:48;99730.44;;;3.75
67515;BMP280;60646;55.802;37.032;2022-11-20T02:01:15;99726.00;;;3.72
67515;BMP280;60646;55.802;37.032;2022-11-20T02:03:41;99734.56;;;3.76
67515;BMP280;60646;55.802;37.032;2022-11-20T02:06:50;99758.41;;;3.85
67515;BMP280;60646;55.802;37.032;2022-11-20T02:09:17;99736.28;;;3.70
67515;BMP280;60646;55.802;37.032;2022-11-20T02:11:43;99754.41;;;3.81
67515;BMP280;60646;55.802;37.032;2022-11-20T02:14:09;99757.13;;;3.77
67515;BMP280;60646;55.802;37.032;2022-11-20T02:16:38;99756.44;;;3.77
67515;BMP280;60646;55.802;37.032;2022-11-20T02:19:09;99759.16;;;3.73
67515;BMP280;60646;55.802;37.032;2022-11-20T02:21:46;99765.06;;;3.77
67515;BMP280;60646;55.802;37.032;2022-11-20T02:24:21;99752.34;;;3.63
67515;BMP280;60646;55.802;37.032;2022-11-20T02:29:19;99776.06;;;3.76
67515;BMP280;60646;55.802;37.032;2022-11-20T02:31:48;99754.13;;;3.66
67515;BMP280;60646;55.802;37.032;2022-11-20T02:34:14;99757.19;;;3.64
67515;BMP280;60646;55.802;37.032;2022-11-20T02:36:41;99775.00;;;3.73
67515;BMP280;60646;55.802;37.032;2022-11-20T02:39:09;99771.47;;;3.67
67515;BMP280;60646;55.802;37.032;2022-11-20T02:41:37;99755.81;;;3.60
67515;BMP280;60646;55.802;37.032;2022-11-20T02:44:04;99759.53;;;3.62
67515;BMP280;60646;55.802;37.032;2022-11-20T02:46:31;99771.75;;;3.69
67515;BMP280;60646;55.802;37.032;2022-11-20T02:48:58;99757.41;;;3.57
67515;BMP280;60646;55.802;37.032;2022-11-20T02:51:23;99752.97;;;3.54
67515;BMP280;60646;55.802;37.032;2022-11-20T02:53:49;99757.84;;;3.56
67515;BMP280;60646;55.802;37.032;2022-11-20T02:56:15;99767.53;;;3.59
67515;BMP280;60646;55.802;37.032;2022-11-20T02:58:41;99772.53;;;3.57
67515;BMP280;60646;55.802;37.032;2022-11-20T03:01:07;99763.84;;;3.56
67515;BMP280;60646;55.802;37.032;2022-11-20T03:03:32;99780.84;;;3.55
67515;BMP280;60646;55.802;37.032;2022-11-20T03:05:59;99796.50;;;3.62
67515;BMP280;60646;55.802;37.032;2022-11-20T03:08:25;99767.44;;;3.50
67515;BMP280;60646;55.802;37.032;2022-11-20T03:10:52;99787.50;;;3.60
67515;BMP280;60646;55.802;37.032;2022-11-20T03:13:17;99779.81;;;3.53
67515;BMP280;60646;55.802;37.032;2022-11-20T03:15:43;99777.19;;;3.53
67515;BMP280;60646;55.802;37.032;2022-11-20T03:18:09;99766.84;;;3.46
67515;BMP280;60646;55.802;37.032;2022-11-20T03:20:35;99781.59;;;3.56
67515;BMP280;60646;55.802;37.032;2022-11-20T03:23:01;99772.97;;;3.43
67515;BMP280;60646;55.802;37.032;2022-11-20T03:25:27;99795.44;;;3.60
67515;BMP280;60646;55.802;37.032;2022-11-20T03:27:53;99795.44;;;3.60
67515;BMP280;60646;55.802;37.032;2022-11-20T03:30:19;99768.53;;;3.40
67515;BMP280;60646;55.802;37.032;2022-11-20T03:32:46;99772.22;;;3.42
67515;BMP280;60646;55.802;37.032;2022-11-20T03:35:11;99784.16;;;3.47
67515;BMP280;60646;55.802;37.032;2022-11-20T03:37:37;99792.16;;;3.56
67515;BMP280;60646;55.802;37.032;2022-11-20T03:40:03;99780.34;;;3.48
67515;BMP280;60646;55.802;37.032;2022-11-20T03:42:29;99785.22;;;3.49
67515;BMP280;60646;55.802;37.032;2022-11-20T03:45:10;99803.69;;;3.62
67515;BMP280;60646;55.802;37.032;2022-11-20T03:47:36;99797.13;;;3.54
67515;BMP280;60646;55.802;37.032;2022-11-20T03:50:02;99788.25;;;3.48
67515;BMP280;60646;55.802;37.032;2022-11-20T03:52:29;99808.00;;;3.56
67515;BMP280;60646;55.802;37.032;2022-11-20T03:54:54;99797.44;;;3.56
67515;BMP280;60646;55.802;37.032;2022-11-20T03:57:20;99806.44;;;3.58
67515;BMP280;60646;55.802;37.032;2022-11-20T03:59:46;99805.88;;;3.51
67515;BMP280;60646;55.802;37.032;2022-11-20T04:02:11;99815.06;;;3.59
67515;BMP280;60646;55.802;37.032;2022-11-20T04:04:37;99803.56;;;3.53
67515;BMP280;60646;55.802;37.032;2022-11-20T04:07:03;99808.00;;;3.56
67515;BMP280;60646;55.802;37.032;2022-11-20T04:09:28;99817.72;;;3.59
67515;BMP280;60646;55.802;37.032;2022-11-20T04:11:54;99809.59;;;3.53
67515;BMP280;60646;55.802;37.032;2022-11-20T04:14:20;99820.34;;;3.59
67515;BMP280;60646;55.802;37.032;2022-11-20T04:16:45;99825.63;;;3.59
67515;BMP280;60646;55.802;37.032;2022-11-20T04:19:15;99832.00;;;3.61
67515;BMP280;60646;55.802;37.032;2022-11-20T04:21:42;99853.63;;;3.69
67515;BMP280;60646;55.802;37.032;2022-11-20T04:24:08;99841.81;;;3.61
67515;BMP280;60646;55.802;37.032;2022-11-20T04:26:34;99838.94;;;3.55
67515;BMP280;60646;55.802;37.032;2022-11-20T04:29:00;99833.38;;;3.53
67515;BMP280;60646;55.802;37.032;2022-11-20T04:31:31;99834.63;;;3.49
67515;BMP280;60646;55.802;37.032;2022-11-20T04:34:06;99842.09;;;3.50
67515;BMP280;60646;55.802;37.032;2022-11-20T04:36:32;99837.81;;;3.44
67515;BMP280;60646;55.802;37.032;2022-11-20T04:39:04;99854.28;;;3.48
67515;BMP280;60646;55.802;37.032;2022-11-20T04:41:33;99863.97;;;3.51
67515;BMP280;60646;55.802;37.032;2022-11-20T04:44:00;99846.25;;;3.39
67515;BMP280;60646;55.802;37.032;2022-11-20T04:46:30;99866.31;;;3.49
67515;BMP280;60646;55.802;37.032;2022-11-20T04:48:56;99870.09;;;3.48
67515;BMP280;60646;55.802;37.032;2022-11-20T04:51:22;99871.59;;;3.49
67515;BMP280;60646;55.802;37.032;2022-11-20T04:53:48;99848.66;;;3.33
67515;BMP280;60646;55.802;37.032;2022-11-20T04:56:14;99866.53;;;3.42
67515;BMP280;60646;55.802;37.032;2022-11-20T04:58:41;99865.88;;;3.38
67515;BMP280;60646;55.802;37.032;2022-11-20T05:01:27;99889.22;;;3.52
67515;BMP280;60646;55.802;37.032;2022-11-20T05:03:52;99878.47;;;3.46
67515;BMP280;60646;55.802;37.032;2022-11-20T05:06:20;99867.38;;;3.39
67515;BMP280;60646;55.802;37.032;2022-11-20T05:08:46;99888.06;;;3.53
67515;BMP280;60646;55.802;37.032;2022-11-20T05:11:14;99862.19;;;3.35
67515;BMP280;60646;55.802;37.032;2022-11-20T05:13:41;99878.56;;;3.43
67515;BMP280;60646;55.802;37.032;2022-11-20T05:16:26;99884.50;;;3.47
67515;BMP280;60646;55.802;37.032;2022-11-20T05:18:53;99902.75;;;3.54
67515;BMP280;60646;55.802;37.032;2022-11-20T05:21:20;99907.31;;;3.53
67515;BMP280;60646;55.802;37.032;2022-11-20T05:23:46;99886.84;;;3.45
67515;BMP280;60646;55.802;37.032;2022-11-20T05:26:14;99907.72;;;3.52
67515;BMP280;60646;55.802;37.032;2022-11-20T05:28:40;99878.78;;;3.36
67515;BMP280;60646;55.802;37.032;2022-11-20T05:31:06;99905.47;;;3.50
67515;BMP280;60646;55.802;37.032;2022-11-20T05:33:34;99910.03;;;3.50
67515;BMP280;60646;55.802;37.032;2022-11-20T05:36:00;99899.06;;;3.39
67515;BMP280;60646;55.802;37.032;2022-11-20T05:38:26;99904.84;;;3.34
67515;BMP280;60646;55.802;37.032;2022-11-20T05:40:52;99917.53;;;3.39
67515;BMP280;60646;55.802;37.032;2022-11-20T05:43:18;99919.53;;;3.35
67515;BMP280;60646;55.802;37.032;2022-11-20T05:45:52;99916.47;;;3.36
67515;BMP280;60646;55.802;37.032;2022-11-20T05:48:17;99919.84;;;3.37
67515;BMP280;60646;55.802;37.032;2022-11-20T05:50:43;99927.69;;;3.40
67515;BMP280;60646;55.802;37.032;2022-11-20T05:53:09;99926.94;;;3.40
67515;BMP280;60646;55.802;37.032;2022-11-20T05:55:35;99916.06;;;3.38
67515;BMP280;60646;55.802;37.032;2022-11-20T05:58:00;99934.66;;;3.47
67515;BMP280;60646;55.802;37.032;2022-11-20T06:00:26;99929.88;;;3.42
67515;BMP280;60646;55.802;37.032;2022-11-20T06:02:52;99922.59;;;3.33
67515;BMP280;60646;55.802;37.032;2022-11-20T06:05:18;99937.91;;;3.38
67515;BMP280;60646;55.802;37.032;2022-11-20T06:07:44;99959.38;;;3.40
67515;BMP280;60646;55.802;37.032;2022-11-20T06:10:10;99947.94;;;3.31
67515;BMP280;60646;55.802;37.032;2022-11-20T06:12:38;99965.69;;;3.43
67515;BMP280;60646;55.802;37.032;2022-11-20T06:15:07;99963.81;;;3.43
67515;BMP280;60646;55.802;37.032;2022-11-20T06:17:34;99965.69;;;3.43
67515;BMP280;60646;55.802;37.032;2022-11-20T06:20:00;99974.38;;;3.43
67515;BMP280;60646;55.802;37.032;2022-11-20T06:22:28;99961.03;;;3.34
67515;BMP280;60646;55.802;37.032;2022-11-20T06:24:54;99975.09;;;3.44
67515;BMP280;60646;55.802;37.032;2022-11-20T06:27:20;99976.91;;;3.47
67515;BMP280;60646;55.802;37.032;2022-11-20T06:29:45;99978.06;;;3.46
67515;BMP280;60646;55.802;37.032;2022-11-20T06:32:11;99985.13;;;3.49
67515;BMP280;60646;55.802;37.032;2022-11-20T06:34:37;99975.72;;;3.48
67515;BMP280;60646;55.802;37.032;2022-11-20T06:37:03;99968.09;;;3.50
67515;BMP280;60646;55.802;37.032;2022-11-20T06:39:28;99955.03;;;3.46
67515;BMP280;60646;55.802;37.032;2022-11-20T06:41:54;99958.22;;;3.54
67515;BMP280;60646;55.802;37.032;2022-11-20T06:44:23;99972.25;;;3.63
67515;BMP280;60646;55.802;37.032;2022-11-20T06:46:56;99962.00;;;3.53
67515;BMP280;60646;55.802;37.032;2022-11-20T06:49:22;99962.75;;;3.53
67515;BMP280;60646;55.802;37.032;2022-11-20T06:51:47;99964.88;;;3.58
67515;BMP280;60646;55.802;37.032;2022-11-20T06:54:13;99959.78;;;3.51
67515;BMP280;60646;55.802;37.032;2022-11-20T06:56:39;99961.28;;;3.52
67515;BMP280;60646;55.802;37.032;2022-11-20T06:59:06;99949.31;;;3.48
67515;BMP280;60646;55.802;37.032;2022-11-20T07:01:32;99970.47;;;3.60
67515;BMP280;60646;55.802;37.032;2022-11-20T07:03:58;99970.97;;;3.55
67515;BMP280;60646;55.802;37.032;2022-11-20T07:06:23;99967.28;;;3.53
67515;BMP280;60646;55.802;37.032;2022-11-20T07:08:52;99984.41;;;3.61
67515;BMP280;60646;55.802;37.032;2022-11-20T07:11:19;99982.13;;;3.63
67515;BMP280;60646;55.802;37.032;2022-11-20T07:13:45;99985.41;;;3.67
67515;BMP280;60646;55.802;37.032;2022-11-20T07:16:11;99980.53;;;3.65
67515;BMP280;60646;55.802;37.032;2022-11-20T07:18:37;100000.50;;;3.79
67515;BMP280;60646;55.802;37.032;2022-11-20T07:21:05;99999.66;;;3.82
67515;BMP280;60646;55.802;37.032;2022-11-20T07:23:31;100005.28;;;3.84
67515;BMP280;60646;55.802;37.032;2022-11-20T07:25:57;99972.09;;;3.70
67515;BMP280;60646;55.802;37.032;2022-11-20T07:28:25;99996.84;;;3.89
67515;BMP280;60646;55.802;37.032;2022-11-20T07:30:54;99985.28;;;3.83
67515;BMP280;60646;55.802;37.032;2022-11-20T07:33:23;99978.22;;;3.80
67515;BMP280;60646;55.802;37.032;2022-11-20T07:35:49;100012.13;;;3.94
67515;BMP280;60646;55.802;37.032;2022-11-20T07:38:15;100006.09;;;3.94
67515;BMP280;60646;55.802;37.032;2022-11-20T07:40:41;100006.63;;;4.01
67515;BMP280;60646;55.802;37.032;2022-11-20T07:43:06;99997.13;;;3.91
67515;BMP280;60646;55.802;37.032;2022-11-20T07:45:35;100000.72;;;3.97
67515;BMP280;60646;55.802;37.032;2022-11-20T07:48:04;99997.66;;;3.99
67515;BMP280;60646;55.802;37.032;2022-11-20T07:50:30;100000.63;;;4.01
67515;BMP280;60646;55.802;37.032;2022-11-20T07:53:04;99987.84;;;3.99
67515;BMP280;60646;55.802;37.032;2022-11-20T07:55:30;99998.09;;;4.10
67515;BMP280;60646;55.802;37.032;2022-11-20T07:57:57;100009.75;;;4.12
67515;BMP280;60646;55.802;37.032;2022-11-20T08:00:23;100008.56;;;4.13
67515;BMP280;60646;55.802;37.032;2022-11-20T08:02:49;100004.44;;;4.12
67515;BMP280;60646;55.802;37.032;2022-11-20T08:05:15;99974.06;;;4.04
67515;BMP280;60646;55.802;37.032;2022-11-20T08:07:43;100006.84;;;4.19
67515;BMP280;60646;55.802;37.032;2022-11-20T08:10:11;99998.72;;;4.14
67515;BMP280;60646;55.802;37.032;2022-11-20T08:12:52;100010.66;;;4.18
67515;BMP280;60646;55.802;37.032;2022-11-20T08:15:38;100022.94;;;4.25
67515;BMP280;60646;55.802;37.032;2022-11-20T08:18:05;100033.09;;;4.27
67515;BMP280;60646;55.802;37.032;2022-11-20T08:20:32;100044.31;;;4.31
67515;BMP280;60646;55.802;37.032;2022-11-20T08:22:59;100029.47;;;4.20
67515;BMP280;60646;55.802;37.032;2022-11-20T08:25:26;100045.69;;;4.35
67515;BMP280;60646;55.802;37.032;2022-11-20T08:27:52;100038.28;;;4.30
67515;BMP280;60646;55.802;37.032;2022-11-20T08:30:17;100048.59;;;4.37
67515;BMP280;60646;55.802;37.032;2022-11-20T08:32:43;100050.22;;;4.35
67515;BMP280;60646;55.802;37.032;2022-11-20T08:35:09;100060.88;;;4.44
67515;BMP280;60646;55.802;37.032;2022-11-20T08:37:38;100066.41;;;4.49
67515;BMP280;60646;55.802;37.032;2022-11-20T08:40:57;100062.56;;;4.50
67515;BMP280;60646;55.802;37.032;2022-11-20T08:43:41;100041.00;;;4.39
67515;BMP280;60646;55.802;37.032;2022-11-20T08:46:07;100060.44;;;4.45
67515;BMP280;60646;55.802;37.032;2022-11-20T08:48:32;100073.06;;;4.54
67515;BMP280;60646;55.802;37.032;2022-11-20T08:50:59;100071.69;;;4.49
67515;BMP280;60646;55.802;37.032;2022-11-20T08:53:26;100082.78;;;4.57
67515;BMP280;60646;55.802;37.032;2022-11-20T08:55:52;100081.91;;;4.60
67515;BMP280;60646;55.802;37.032;2022-11-20T08:58:17;100092.81;;;4.62
67515;BMP280;60646;55.802;37.032;2022-11-20T09:00:43;100090.19;;;4.62
67515;BMP280;60646;55.802;37.032;2022-11-20T09:03:09;100096.09;;;4.66
67515;BMP280;60646;55.802;37.032;2022-11-20T09:05:35;100102.56;;;4.65
67515;BMP280;60646;55.802;37.032;2022-11-20T09:08:00;100108.06;;;4.70
67515;BMP280;60646;55.802;37.032;2022-11-20T09:10:26;100107.31;;;4.70
67515;BMP280;60646;55.802;37.032;2022-11-20T09:12:53;100118.50;;;4.74
67515;BMP280;60646;55.802;37.032;2022-11-20T09:15:20;100104.78;;;4.66
67515;BMP280;60646;55.802;37.032;2022-11-20T09:18:01;100119.16;;;4.78
67515;BMP280;60646;55.802;37.032;2022-11-20T09:20:28;100119.41;;;4.71
67515;BMP280;60646;55.802;37.032;2022-11-20T09:22:54;100140.66;;;4.80
67515;BMP280;60646;55.802;37.032;2022-11-20T09:25:21;100140.22;;;4.82
67515;BMP280;60646;55.802;37.032;2022-11-20T09:27:47;100133.97;;;4.76
67515;BMP280;60646;55.802;37.032;2022-11-20T09:30:14;100131.47;;;4.72
67515;BMP280;60646;55.802;37.032;2022-11-20T09:32:40;100135.88;;;4.75
67515;BMP280;60646;55.802;37.032;2022-11-20T09:35:15;100147.72;;;4.83
67515;BMP280;60646;55.802;37.032;2022-11-20T09:37:43;100154.50;;;4.84
67515;BMP280;60646;55.802;37.032;2022-11-20T09:40:25;100159.56;;;4.91
67515;BMP280;60646;55.802;37.032;2022-11-20T09:43:00;100159.56;;;4.91
67515;BMP280;60646;55.802;37.032;2022-11-20T09:48:18;100145.31;;;4.89
67515;BMP280;60646;55.802;37.032;2022-11-20T09:56:20;100150.72;;;4.85
67515;BMP280;60646;55.802;37.032;2022-11-20T09:58:49;100149.22;;;4.84
67515;BMP280;60646;55.802;37.032;2022-11-20T10:01:17;100171.38;;;4.90
67515;BMP280;60646;55.802;37.032;2022-11-20T10:03:57;100175.44;;;4.91
67515;BMP280;60646;55.802;37.032;2022-11-20T10:06:51;100162.69;;;4.90
67515;BMP280;60646;55.802;37.032;2022-11-20T10:09:49;100170.28;;;4.88
67515;BMP280;60646;55.802;37.032;2022-11-20T10:20:29;100169.66;;;4.84
67515;BMP280;60646;55.802;37.032;2022-11-20T10:26:10;100179.50;;;4.83
67515;BMP280;60646;55.802;37.032;2022-11-20T10:37:55;100140.53;;;4.46
67515;BMP280;60646;55.802;37.032;2022-11-20T10:40:38;100180.13;;;4.75
67515;BMP280;60646;55.802;37.032;2022-11-20T10:43:32;100188.06;;;4.75
67515;BMP280;60646;55.802;37.032;2022-11-20T10:46:01;100171.75;;;4.63
67515;BMP280;60646;55.802;37.032;2022-11-20T10:48:31;100187.13;;;4.68
67515;BMP280;60646;55.802;37.032;2022-11-20T10:51:15;100193.47;;;4.71
67515;BMP280;60646;55.802;37.032;2022-11-20T10:53:56;100193.16;;;4.69
67515;BMP280;60646;55.802;37.032;2022-11-20T10:56:38;100197.69;;;4.68
67515;BMP280;60646;55.802;37.032;2022-11-20T11:02:15;100203.44;;;4.67
67515;BMP280;60646;55.802;37.032;2022-11-20T11:04:47;100211.03;;;4.65
67515;BMP280;60646;55.802;37.032;2022-11-20T11:09:52;100215.69;;;4.61
67515;BMP280;60646;55.802;37.032;2022-11-20T11:12:19;100164.56;;;4.26
67515;BMP280;60646;55.802;37.032;2022-11-20T11:14:51;100225.50;;;4.60
67515;BMP280;60646;55.802;37.032;2022-11-20T11:17:31;100225.50;;;4.60
67515;BMP280;60646;55.802;37.032;2022-11-20T11:20:19;100224.88;;;4.56
67515;BMP280;60646;55.802;37.032;2022-11-20T11:22:56;100223.50;;;4.52
67515;BMP280;60646;55.802;37.032;2022-11-20T11:25:24;100225.81;;;4.50
67515;BMP280;60646;55.802;37.032;2022-11-20T11:27:51;100219.13;;;4.45
67515;BMP280;60646;55.802;37.032;2022-11-20T11:30:19;100221.78;;;4.45
67515;BMP280;60646;55.802;37.032;2022-11-20T11:32:45;100227.81;;;4.46
67515;BMP280;60646;55.802;37.032;2022-11-20T11:35:24;100222.97;;;4.44
67515;BMP280;60646;55.802;37.032;2022-11-20T11:37:52;100215.66;;;4.36
67515;BMP280;60646;55.802;37.032;2022-11-20T11:40:21;100220.72;;;4.43
67515;BMP280;60646;55.802;37.032;2022-11-20T11:42:54;100221.88;;;4.42
67515;BMP280;60646;55.802;37.032;2022-11-20T11:45:22;100204.22;;;4.26
67515;BMP280;60646;55.802;37.032;2022-11-20T11:48:00;100220.94;;;4.36
67515;BMP280;60646;55.802;37.032;2022-11-20T11:50:48;100227.41;;;4.35
67515;BMP280;60646;55.802;37.032;2022-11-20T11:53:17;100231.59;;;4.32
67515;BMP280;60646;55.802;37.032;2022-11-20T11:56:21;100230.03;;;4.35
67515;BMP280;60646;55.802;37.032;2022-11-20T11:58:51;100216.44;;;4.20
67515;BMP280;60646;55.802;37.032;2022-11-20T12:04:05;100233.69;;;4.25
67515;BMP280;60646;55.802;37.032;2022-11-20T12:06:34;100238.34;;;4.20
67515;BMP280;60646;55.802;37.032;2022-11-20T12:09:04;100238.75;;;4.19
67515;BMP280;60646;55.802;37.032;2022-11-20T12:14:22;100238.84;;;4.15
67515;BMP280;60646;55.802;37.032;2022-11-20T12:17:01;100218.06;;;4.01
67515;BMP280;60646;55.802;37.032;2022-11-20T12:19:29;100238.97;;;4.12
67515;BMP280;60646;55.802;37.032;2022-11-20T12:25:25;100232.59;;;4.09
67515;BMP280;60646;55.802;37.032;2022-11-20T12:30:32;100229.38;;;4.02
67515;BMP280;60646;55.802;37.032;2022-11-20T12:43:27;100235.56;;;3.95
67515;BMP280;60646;55.802;37.032;2022-11-20T12:49:52;100243.94;;;3.94
67515;BMP280;60646;55.802;37.032;2022-11-20T12:52:30;100238.09;;;3.86
67515;BMP280;60646;55.802;37.032;2022-11-20T12:57:53;100244.78;;;3.91
67515;BMP280;60646;55.802;37.032;2022-11-20T13:00:21;100251.66;;;3.88
67515;BMP280;60646;55.802;37.032;2022-11-20T13:03:11;100261.06;;;3.89
67515;BMP280;60646;55.802;37.032;2022-11-20T13:06:20;100256.28;;;3.84
67515;BMP280;60646;55.802;37.032;2022-11-20T13:08:52;100248.50;;;3.77
67515;BMP280;60646;55.802;37.032;2022-11-20T13:19:21;100257.91;;;3.78
67515;BMP280;60646;55.802;37.032;2022-11-20T13:21:49;100265.44;;;3.80
67515;BMP280;60646;55.802;37.032;2022-11-20T13:26:44;100271.22;;;3.74
67515;BMP280;60646;55.802;37.032;2022-11-20T13:29:18;100263.28;;;3.74
67515;BMP280;60646;55.802;37.032;2022-11-20T13:31:46;100259.59;;;3.72
67515;BMP280;60646;55.802;37.032;2022-11-20T13:34:23;100272.97;;;3.81
67515;BMP280;60646;55.802;37.032;2022-11-20T13:36:54;100285.81;;;3.79
67515;BMP280;60646;55.802;37.032;2022-11-20T13:39:29;100285.00;;;3.82
67515;BMP280;60646;55.802;37.032;2022-11-20T13:42:20;100288.88;;;3.78
67515;BMP280;60646;55.802;37.032;2022-11-20T13:44:55;100284.78;;;3.77
67515;BMP280;60646;55.802;37.032;2022-11-20T13:47:27;100257.25;;;3.74
67515;BMP280;60646;55.802;37.032;2022-11-20T13:49:55;100277.91;;;3.79
67515;BMP280;60646;55.802;37.032;2022-11-20T14:00:29;100294.25;;;3.74
67515;BMP280;60646;55.802;37.032;2022-11-20T14:03:18;100290.44;;;3.75
67515;BMP280;60646;55.802;37.032;2022-11-20T14:05:55;100303.19;;;3.80
67515;BMP280;60646;55.802;37.032;2022-11-20T14:08:27;100284.53;;;3.71
67515;BMP280;60646;55.802;37.032;2022-11-20T14:11:27;100300.84;;;3.82
67515;BMP280;60646;55.802;37.032;2022-11-20T14:14:19;100302.50;;;3.76
67515;BMP280;60646;55.802;37.032;2022-11-20T14:16:47;100313.75;;;3.80
67515;BMP280;60646;55.802;37.032;2022-11-20T14:19:31;100307.06;;;3.76
67515;BMP280;60646;55.802;37.032;2022-11-20T14:22:17;100321.66;;;3.80
67515;BMP280;60646;55.802;37.032;2022-11-20T14:24:44;100305.81;;;3.64
67515;BMP280;60646;55.802;37.032;2022-11-20T14:27:16;100318.97;;;3.67
67515;BMP280;60646;55.802;37.032;2022-11-20T14:29:44;100313.41;;;3.62
67515;BMP280;60646;55.802;37.032;2022-11-20T14:32:11;100319.38;;;3.66
67515;BMP280;60646;55.802;37.032;2022-11-20T14:34:42;100320.84;;;3.67
67515;BMP280;60646;55.802;37.032;2022-11-20T14:37:13;100315.56;;;3.67
67515;BMP280;60646;55.802;37.032;2022-11-20T14:39:49;100328.19;;;3.76
67515;BMP280;60646;55.802;37.032;2022-11-20T14:42:28;100330.09;;;3.75
67515;BMP280;60646;55.802;37.032;2022-11-20T14:45:00;100329.34;;;3.74
67515;BMP280;60646;55.802;37.032;2022-11-20T14:47:29;100331.22;;;3.74
67515;BMP280;60646;55.802;37.032;2022-11-20T14:49:56;100333.56;;;3.72
67515;BMP280;60646;55.802;37.032;2022-11-20T14:52:25;100327.78;;;3.61
67515;BMP280;60646;55.802;37.032;2022-11-20T14:54:56;100313.06;;;3.60
67515;BMP280;60646;55.802;37.032;2022-11-20T14:57:28;100308.22;;;3.58
67515;BMP280;60646;55.802;37.032;2022-11-20T15:04:10;100314.22;;;3.59
67515;BMP280;60646;55.802;37.032;2022-11-20T15:06:36;100325.31;;;3.70
67515;BMP280;60646;55.802;37.032;2022-11-20T15:09:04;100334.06;;;3.67
67515;BMP280;60646;55.802;37.032;2022-11-20T15:11:35;100319.09;;;3.60
67515;BMP280;60646;55.802;37.032;2022-11-20T15:14:04;100329.94;;;3.66
67515;BMP280;60646;55.802;37.032;2022-11-20T15:16:30;100314.66;;;3.57
67515;BMP280;60646;55.802;37.032;2022-11-20T15:18:56;100294.16;;;3.45
67515;BMP280;60646;55.802;37.032;2022-11-20T15:21:22;100308.63;;;3.57
67515;BMP280;60646;55.802;37.032;2022-11-20T15:23:48;100320.50;;;3.65
67515;BMP280;60646;55.802;37.032;2022-11-20T15:26:20;100323.16;;;3.65
67515;BMP280;60646;55.802;37.032;2022-11-20T15:28:51;100329.25;;;3.62
67515;BMP280;60646;55.802;37.032;2022-11-20T15:31:21;100308.63;;;3.57
67515;BMP280;60646;55.802;37.032;2022-11-20T15:33:47;100314.91;;;3.63
67515;BMP280;60646;55.802;37.032;2022-11-20T15:36:13;100308.28;;;3.55
67515;BMP280;60646;55.802;37.032;2022-11-20T15:38:39;100312.09;;;3.54
67515;BMP280;60646;55.802;37.032;2022-11-20T15:41:06;100315.78;;;3.56
67515;BMP280;60646;55.802;37.032;2022-11-20T15:43:32;100308.34;;;3.51
67515;BMP280;60646;55.802;37.032;2022-11-20T15:46:20;100317.22;;;3.61
67515;BMP280;60646;55.802;37.032;2022-11-20T15:48:53;100303.00;;;3.55
67515;BMP280;60646;55.802;37.032;2022-11-20T15:57:35;100314.72;;;3.54